Canmore, Canada
Current Conditions -  °F | °C
As of 5:00 AM on Monday 22 Dec 2014 (Local Time) from CYBW Reporting Station
Overcast Overcast  
Wind Chill: 15°   Ceiling: 9500
Heat Index: 23°   Visibility: 9mi
Dew Point: 14°   Wind: 7mph
Humidity: 68%   Direction: 300°WNW
Pressure: 29.7"   Gusts: NA
Location:  51.09°N, 115.36°W
Report Text: CYBW 221200Z AUTO 30006KT 9SM OVC095 M05/M10 A2970 RMK SLP111
Loading
Personal Weather Stations






























Interactive Weather Map New forecast layout! Learn more

10-Day Weather Forecast

Advertisements
Track Severe Weather on mobile